Time;durP1;ratioP1;P1;durP2;ratioP2;P2;SDS_P1;SDS_P2;PMS_P1;PMS_P2;Temp;Humidity;BMP_temperature;BMP_pressure;BME280_temperature;BME280_humidity;BME280_pressure;Samples;Min_cycle;Max_cycle;Signal;HPM_P1;HPM_P2
2022/11/14 00:02:17;;;;;;;;;1.00;1.00;;;;;20.91;65.69;102130.83;106150;1292;18956;-83
2022/11/14 00:04:44;;;;;;;;;1.00;1.00;;;;;20.89;65.81;102126.45;106185;1297;20186;-83
2022/11/14 00:07:12;;;;;;;;;1.00;1.00;;;;;20.90;65.74;102127.25;106213;1297;20731;-83
2022/11/14 00:09:41;;;;;;;;;1.00;1.00;;;;;20.90;65.76;102125.58;106211;1285;21700;-83
2022/11/14 00:12:09;;;;;;;;;1.00;1.00;;;;;20.91;65.79;102123.14;106239;1288;22469;-83
2022/11/14 00:14:36;;;;;;;;;1.00;1.00;;;;;20.91;65.67;102122.97;106147;1282;22967;-83
2022/11/14 00:17:03;;;;;;;;;1.50;1.00;;;;;20.90;65.87;102124.31;106103;1289;139735;-83
2022/11/14 00:19:31;;;;;;;;;;;;;;;20.89;65.76;102121.95;106194;1288;18969;-83
2022/11/14 00:21:59;;;;;;;;;1.00;1.00;;;;;20.89;65.72;102124.33;106190;1297;21260;-83
2022/11/14 00:24:26;;;;;;;;;1.50;1.50;;;;;20.88;65.53;102120.14;106093;1271;21814;-83
2022/11/14 00:26:53;;;;;;;;;1.00;1.00;;;;;20.88;65.54;102115.98;106128;1288;21945;-83
2022/11/14 00:29:21;;;;;;;;;1.00;1.00;;;;;20.89;65.61;102112.14;106210;1291;21780;-84
2022/11/14 00:31:48;;;;;;;;;;;;;;;20.88;65.57;102112.52;106298;1297;21838;-84
2022/11/14 00:34:16;;;;;;;;;1.00;1.00;;;;;20.89;65.68;102112.25;106242;1281;18438;-83
2022/11/14 00:36:43;;;;;;;;;1.50;1.50;;;;;20.88;65.68;102108.89;106219;1296;19332;-84
2022/11/14 00:39:10;;;;;;;;;2.00;1.00;;;;;20.88;65.52;102109.67;106230;1291;18572;-82
2022/11/14 00:41:38;;;;;;;;;2.00;1.00;;;;;20.87;65.68;102108.28;106158;1290;18538;-83
2022/11/14 00:44:05;;;;;;;;;1.00;1.00;;;;;20.88;65.54;102110.16;106295;1295;19170;-84
2022/11/14 00:46:32;;;;;;;;;2.00;2.00;;;;;20.88;65.55;102105.14;106177;1280;22036;-83
2022/11/14 00:49:00;;;;;;;;;2.00;1.50;;;;;20.88;65.43;102106.20;106222;1297;22026;-83
2022/11/14 00:51:27;;;;;;;;;1.00;1.00;;;;;20.88;65.68;102105.31;106243;1285;19462;-82
2022/11/14 00:53:55;;;;;;;;;1.00;1.00;;;;;20.87;65.49;102098.35;106227;1279;21840;-83
2022/11/14 00:56:22;;;;;;;;;1.00;1.00;;;;;20.87;65.47;102097.36;106216;1295;18974;-83
2022/11/14 00:58:49;;;;;;;;;1.00;1.00;;;;;20.88;65.41;102101.34;106161;1288;21618;-83
2022/11/14 01:01:17;;;;;;;;;;;;;;;20.87;65.30;102099.20;106245;1287;18392;-83
2022/11/14 01:03:44;;;;;;;;;1.00;1.00;;;;;20.86;65.59;102095.09;106231;1271;18312;-84
2022/11/14 01:06:13;;;;;;;;;1.00;1.00;;;;;20.87;65.34;102097.19;106194;1300;22898;-83
2022/11/14 01:08:40;;;;;;;;;1.00;1.00;;;;;20.88;65.30;102097.50;106126;1296;18401;-83
2022/11/14 01:11:08;;;;;;;;;1.00;1.00;;;;;20.89;65.39;102087.44;106175;1282;21531;-83
2022/11/14 01:13:35;;;;;;;;;1.00;1.00;;;;;20.87;65.29;102082.48;106255;1297;19328;-83
2022/11/14 01:16:02;;;;;;;;;1.00;1.00;;;;;20.87;65.33;102078.66;106216;1288;18603;-84
2022/11/14 01:18:30;;;;;;;;;1.00;1.00;;;;;20.86;65.38;102078.82;106173;1296;18777;-83
2022/11/14 01:20:57;;;;;;;;;2.00;1.00;;;;;20.87;65.29;102073.61;106150;1296;19308;-83
2022/11/14 01:23:25;;;;;;;;;1.00;1.00;;;;;20.87;65.32;102071.05;106251;1296;19569;-83
2022/11/14 01:25:52;;;;;;;;;2.00;2.00;;;;;20.87;65.28;102066.92;106261;1281;18810;-83
2022/11/14 01:28:19;;;;;;;;;1.50;1.50;;;;;20.86;65.30;102062.38;106182;1288;19495;-83
2022/11/14 01:30:47;;;;;;;;;1.00;1.00;;;;;20.86;65.38;102063.32;106155;1297;18406;-83
2022/11/14 01:33:14;;;;;;;;;1.00;1.00;;;;;20.86;65.21;102055.67;106140;1296;18877;-84
2022/11/14 01:35:41;;;;;;;;;1.00;1.00;;;;;20.86;65.14;102053.35;106171;1280;22797;-83
2022/11/14 01:38:09;;;;;;;;;2.00;2.00;;;;;20.85;65.34;102045.77;106269;1297;22296;-83
2022/11/14 01:40:36;;;;;;;;;1.00;1.00;;;;;20.85;65.12;102043.42;106201;1288;22325;-83
2022/11/14 01:43:03;;;;;;;;;1.00;1.00;;;;;20.85;65.28;102043.59;106264;1287;19287;-83
2022/11/14 01:45:31;;;;;;;;;2.00;2.00;;;;;20.86;65.07;102042.44;106274;1288;20180;-83
2022/11/14 01:47:58;;;;;;;;;1.00;1.00;;;;;20.85;65.22;102033.79;106185;1281;22293;-83
2022/11/14 01:50:25;;;;;;;;;4.00;2.00;;;;;20.85;65.13;102023.27;106246;1279;22054;-83
2022/11/14 01:52:53;;;;;;;;;1.00;1.00;;;;;20.84;65.16;102019.56;106264;1288;19667;-83
2022/11/14 01:55:20;;;;;;;;;1.00;1.00;;;;;20.84;65.08;102025.52;106236;1288;18724;-83
2022/11/14 01:57:48;;;;;;;;;1.00;1.00;;;;;20.85;65.17;102022.36;106221;1297;19203;-83
2022/11/14 02:00:15;;;;;;;;;2.00;2.00;;;;;20.85;65.00;102021.11;106185;1297;18725;-83
2022/11/14 02:02:42;;;;;;;;;1.00;1.00;;;;;20.85;65.12;102022.53;106176;1284;20470;-83
2022/11/14 02:05:10;;;;;;;;;1.00;1.00;;;;;20.84;65.11;102019.02;106168;1288;22364;-83
2022/11/14 02:07:37;;;;;;;;;;;;;;;20.83;65.13;102015.44;106298;1297;18381;-84
2022/11/14 02:10:04;;;;;;;;;1.00;1.00;;;;;20.84;64.93;102014.52;106282;1288;22161;-83
2022/11/14 02:12:32;;;;;;;;;2.00;1.00;;;;;20.84;64.97;102014.69;106225;1296;19492;-83
2022/11/14 02:14:59;;;;;;;;;2.00;2.00;;;;;20.83;64.90;102011.65;106249;1288;19746;-84
2022/11/14 02:17:26;;;;;;;;;1.00;1.00;;;;;20.83;65.09;102012.77;106228;1292;18611;-83
2022/11/14 02:19:54;;;;;;;;;2.00;2.00;;;;;20.83;64.99;102006.06;106172;1297;19315;-83
2022/11/14 02:22:21;;;;;;;;;2.00;2.00;;;;;20.83;65.05;102005.34;106248;1295;19900;-83
2022/11/14 02:24:48;;;;;;;;;1.00;1.00;;;;;20.83;64.96;101998.40;106267;1288;18851;-83
2022/11/14 02:27:16;;;;;;;;;1.00;1.00;;;;;20.82;64.87;102001.76;106265;1291;19448;-84
2022/11/14 02:29:43;;;;;;;;;1.50;1.50;;;;;20.82;64.91;101992.64;106274;1295;19027;-83
2022/11/14 02:32:11;;;;;;;;;2.00;2.00;;;;;20.82;64.95;101994.67;106196;1288;18681;-83
2022/11/14 02:34:38;;;;;;;;;1.00;1.00;;;;;20.82;64.92;101994.47;106243;1297;19644;-83
2022/11/14 02:37:05;;;;;;;;;2.00;2.00;;;;;20.83;64.87;101990.39;106191;1296;20349;-83
2022/11/14 02:39:33;;;;;;;;;1.50;1.00;;;;;20.83;64.89;101979.70;106203;1287;24174;-83
2022/11/14 02:42:00;;;;;;;;;2.00;1.50;;;;;20.83;64.86;101984.95;106207;1289;22908;-83
2022/11/14 02:44:27;;;;;;;;;1.50;1.50;;;;;20.82;64.76;101979.58;106240;1287;20539;-82
2022/11/14 02:46:55;;;;;;;;;1.00;1.00;;;;;20.82;64.71;101981.77;106220;1279;18611;-83
2022/11/14 02:49:22;;;;;;;;;2.00;2.00;;;;;20.83;64.87;101980.44;106202;1288;20824;-82
2022/11/14 02:51:49;;;;;;;;;2.00;2.00;;;;;20.81;64.81;101975.33;106201;1297;19165;-82
2022/11/14 02:54:17;;;;;;;;;2.00;2.00;;;;;20.82;64.66;101971.43;106229;1297;18820;-82
2022/11/14 02:56:44;;;;;;;;;1.00;1.00;;;;;20.82;64.59;101966.36;106253;1274;22289;-82
2022/11/14 02:59:11;;;;;;;;;1.00;1.00;;;;;20.81;64.66;101963.85;106209;1288;18437;-83
2022/11/14 03:01:39;;;;;;;;;2.00;2.00;;;;;20.81;64.67;101962.75;106249;1297;18520;-83
2022/11/14 03:04:06;;;;;;;;;2.00;2.00;;;;;20.81;64.63;101960.77;106222;1288;20823;-82
2022/11/14 03:06:33;;;;;;;;;2.00;2.00;;;;;20.81;64.63;101959.52;106184;1297;18443;-82
2022/11/14 03:09:01;;;;;;;;;2.00;2.00;;;;;20.81;64.51;101956.11;106209;1300;18788;-83
2022/11/14 03:11:28;;;;;;;;;1.00;1.00;;;;;20.81;64.59;101958.63;106248;1297;22722;-82
2022/11/14 03:13:56;;;;;;;;;1.00;1.00;;;;;20.80;64.59;101955.38;106235;1289;19905;-82
2022/11/14 03:16:23;;;;;;;;;1.00;1.00;;;;;20.81;64.49;101957.36;106237;1295;18516;-83
2022/11/14 03:18:50;;;;;;;;;2.00;1.00;;;;;20.81;64.70;101956.45;106171;1297;19496;-83
2022/11/14 03:21:18;;;;;;;;;1.00;1.00;;;;;20.81;64.57;101960.61;106145;1297;19265;-83
2022/11/14 03:23:45;;;;;;;;;1.00;1.00;;;;;20.80;64.44;101957.23;106191;1285;23024;-83
2022/11/14 03:26:13;;;;;;;;;1.00;1.00;;;;;20.79;64.34;101952.76;106227;1281;21563;-83
2022/11/14 03:28:40;;;;;;;;;1.00;1.00;;;;;20.79;64.71;101951.11;106184;1288;20763;-83
2022/11/14 03:31:07;;;;;;;;;1.00;1.00;;;;;20.79;64.46;101946.61;106156;1296;19472;-82
2022/11/14 03:33:35;;;;;;;;;1.00;1.00;;;;;20.80;64.48;101949.25;106164;1296;20836;-83
2022/11/14 03:36:02;;;;;;;;;1.00;1.00;;;;;20.79;64.56;101951.01;106243;1288;21109;-82
2022/11/14 03:38:29;;;;;;;;;1.00;1.00;;;;;20.79;64.47;101946.08;106211;1271;18424;-83
2022/11/14 03:40:57;;;;;;;;;1.50;1.00;;;;;20.79;64.37;101944.44;106175;1297;20598;-82
2022/11/14 03:43:24;;;;;;;;;1.00;1.00;;;;;20.78;64.54;101945.59;106164;1281;21644;-84
2022/11/14 03:45:51;;;;;;;;;1.00;1.00;;;;;20.79;64.33;101946.25;106234;1281;24275;-83
2022/11/14 03:48:19;;;;;;;;;1.00;1.00;;;;;20.79;64.35;101944.27;106227;1288;19318;-82
2022/11/14 03:50:46;;;;;;;;;1.00;1.00;;;;;20.79;64.46;101944.81;106263;1288;21447;-83
2022/11/14 03:53:13;;;;;;;;;2.00;2.00;;;;;20.79;64.38;101948.80;106187;1299;22818;-82
2022/11/14 03:55:41;;;;;;;;;1.00;1.00;;;;;20.79;64.46;101943.90;106254;1281;21382;-83
2022/11/14 03:58:08;;;;;;;;;2.00;2.00;;;;;20.77;64.40;101942.62;106263;1288;20004;-83
2022/11/14 04:00:36;;;;;;;;;1.00;1.00;;;;;20.77;64.41;101943.31;106304;1288;23071;-83
2022/11/14 04:03:03;;;;;;;;;2.00;2.00;;;;;20.77;64.27;101935.39;106242;1288;21596;-83
2022/11/14 04:05:31;;;;;;;;;1.00;1.00;;;;;20.77;64.39;101932.23;106254;1287;22506;-84
2022/11/14 04:07:58;;;;;;;;;1.00;1.00;;;;;20.78;64.21;101926.78;106293;1281;18559;-83
2022/11/14 04:10:26;;;;;;;;;1.00;1.00;;;;;20.77;64.38;101922.48;106183;1300;21643;-83
2022/11/14 04:12:53;;;;;;;;;2.00;2.00;;;;;20.77;64.47;101920.71;106230;1272;20908;-83
2022/11/14 04:15:21;;;;;;;;;1.00;1.00;;;;;20.78;64.16;101920.38;106241;1288;21536;-83
2022/11/14 04:17:48;;;;;;;;;1.00;1.00;;;;;20.77;64.22;101922.45;106193;1276;23603;-83
2022/11/14 04:20:15;;;;;;;;;2.00;2.00;;;;;20.77;64.19;101923.58;106249;1288;20149;-82
2022/11/14 04:22:43;;;;;;;;;1.00;1.00;;;;;20.77;64.17;101922.89;106278;1284;18594;-82
2022/11/14 04:25:10;;;;;;;;;1.00;1.00;;;;;20.77;64.31;101917.89;106195;1284;20639;-83
2022/11/14 04:27:37;;;;;;;;;1.00;1.00;;;;;20.76;64.34;101910.19;106220;1288;21221;-83
2022/11/14 04:30:05;;;;;;;;;1.00;1.00;;;;;20.76;64.13;101911.29;106252;1288;18781;-83
2022/11/14 04:32:32;;;;;;;;;1.00;1.00;;;;;20.76;64.11;101911.85;106200;1273;20849;-83
2022/11/14 04:35:00;;;;;;;;;;;;;;;20.76;64.22;101904.60;106252;1296;18371;-82
2022/11/14 04:37:27;;;;;;;;;1.00;1.00;;;;;20.76;64.09;101909.36;106226;1296;21601;-83
2022/11/14 04:39:59;;;;;;;;;2.00;2.00;;;;;20.75;64.16;101903.92;106193;1280;19298;-83
2022/11/14 04:42:27;;;;;;;;;1.00;1.00;;;;;20.77;63.87;101907.05;106186;1281;20579;-83
2022/11/14 04:44:54;;;;;;;;;1.00;1.00;;;;;20.75;64.03;101898.70;106221;1297;18498;-83
2022/11/14 04:47:21;;;;;;;;;2.00;2.00;;;;;20.74;63.99;101905.10;106194;1291;19759;-84
2022/11/14 04:49:49;;;;;;;;;3.00;2.00;;;;;20.75;64.22;101902.66;106264;1296;18284;-83
2022/11/14 04:52:16;;;;;;;;;2.00;1.00;;;;;20.75;64.14;101900.52;106215;1295;19143;-82
2022/11/14 04:54:43;;;;;;;;;1.00;1.00;;;;;20.74;63.97;101896.38;106177;1288;19332;-83
2022/11/14 04:57:11;;;;;;;;;2.00;2.00;;;;;20.74;63.96;101895.90;106206;1287;22423;-83
2022/11/14 04:59:38;;;;;;;;;1.00;1.00;;;;;20.75;64.01;101898.52;106240;1297;18657;-83
2022/11/14 05:02:06;;;;;;;;;2.00;2.00;;;;;20.75;64.21;101899.05;106274;1285;21616;-83
2022/11/14 05:04:33;;;;;;;;;1.00;1.00;;;;;20.74;64.08;101894.95;106211;1291;20055;-83
2022/11/14 05:07:00;;;;;;;;;1.00;1.00;;;;;20.74;64.05;101893.48;106218;1288;18595;-83
2022/11/14 05:09:28;;;;;;;;;1.00;1.00;;;;;20.74;64.13;101884.77;106244;1279;21082;-83
2022/11/14 05:11:55;;;;;;;;;2.00;2.00;;;;;20.75;63.92;101885.65;106267;1288;22866;-82
2022/11/14 05:14:22;;;;;;;;;1.00;1.00;;;;;20.74;63.97;101877.58;106182;1296;18566;-84
2022/11/14 05:16:50;;;;;;;;;2.00;2.00;;;;;20.75;64.06;101877.62;106272;1295;19348;-83
2022/11/14 05:19:17;;;;;;;;;1.00;1.00;;;;;20.74;64.00;101878.43;106259;1297;18413;-83
2022/11/14 05:21:44;;;;;;;;;2.00;2.00;;;;;20.73;63.99;101869.27;106235;1297;18536;-82
2022/11/14 05:24:12;;;;;;;;;1.50;1.50;;;;;20.73;64.06;101868.00;106217;1297;19332;-83
2022/11/14 05:26:39;;;;;;;;;4.00;2.00;;;;;20.74;63.99;101868.48;106220;1296;19782;-84
2022/11/14 05:29:06;;;;;;;;;1.50;1.50;;;;;20.72;63.80;101874.86;106246;1289;18563;-84
2022/11/14 05:31:34;;;;;;;;;1.50;1.50;;;;;20.72;63.90;101873.37;106206;1290;19303;-83
2022/11/14 05:34:01;;;;;;;;;1.00;1.00;;;;;20.73;63.80;101874.34;106211;1288;18754;-82
2022/11/14 05:36:29;;;;;;;;;2.00;2.00;;;;;20.73;63.88;101871.09;106268;1287;18525;-82
2022/11/14 05:38:56;;;;;;;;;2.00;1.00;;;;;20.73;63.78;101876.70;106233;1280;20805;-82
2022/11/14 05:41:23;;;;;;;;;4.00;4.00;;;;;20.74;63.93;101879.73;106268;1297;21739;-82
2022/11/14 05:43:51;;;;;;;;;2.00;2.00;;;;;20.73;63.68;101877.26;106271;1295;18646;-83
2022/11/14 05:46:18;;;;;;;;;2.00;2.00;;;;;20.73;63.84;101883.09;106262;1297;20869;-82
2022/11/14 05:48:45;;;;;;;;;2.00;2.00;;;;;20.74;63.59;101887.76;106260;1297;18390;-82
2022/11/14 05:51:13;;;;;;;;;1.00;1.00;;;;;20.73;63.86;101888.90;106290;1284;20079;-82
2022/11/14 05:53:42;;;;;;;;;1.00;1.00;;;;;20.72;63.78;101888.05;106249;1297;19293;-82
2022/11/14 05:56:09;;;;;;;;;2.00;2.00;;;;;20.72;63.85;101892.58;106254;1296;18420;-83
2022/11/14 05:58:37;;;;;;;;;1.50;1.00;;;;;20.73;63.73;101894.35;106226;1290;18898;-83
2022/11/14 06:01:04;;;;;;;;;1.00;1.00;;;;;20.72;63.70;101900.21;106253;1288;22386;-82
2022/11/14 06:03:31;;;;;;;;;2.00;2.00;;;;;20.73;63.72;101897.48;106244;1289;19112;-83
2022/11/14 06:05:59;;;;;;;;;2.00;2.00;;;;;20.71;63.67;101891.48;106259;1288;18432;-83
2022/11/14 06:08:26;;;;;;;;;1.50;1.50;;;;;20.71;63.68;101896.58;106260;1288;19293;-83
2022/11/14 06:10:53;;;;;;;;;2.00;2.00;;;;;20.72;63.68;101899.35;106261;1289;18490;-83
2022/11/14 06:13:23;;;;;;;;;2.00;2.00;;;;;20.71;63.66;101901.25;106230;1281;20162;-84
2022/11/14 06:15:50;;;;;;;;;2.00;1.50;;;;;20.71;63.55;101901.28;106247;1295;24257;-84
2022/11/14 06:18:18;;;;;;;;;4.00;2.00;;;;;20.70;63.71;101898.41;106216;1291;18413;-83
2022/11/14 06:20:45;;;;;;;;;4.00;2.00;;;;;20.72;63.66;101905.69;106266;1288;20288;-83
2022/11/14 06:23:12;;;;;;;;;2.00;2.00;;;;;20.75;63.54;101906.51;106205;1281;19341;-85
2022/11/14 06:25:40;;;;;;;;;2.00;2.00;;;;;20.76;63.36;101909.66;106221;1282;18777;-82
2022/11/14 06:28:07;;;;;;;;;2.00;2.00;;;;;20.79;63.55;101903.39;106261;1288;18526;-83
2022/11/14 06:30:34;;;;;;;;;22.00;21.00;;;;;20.79;63.72;101903.19;106270;1296;19278;-82
2022/11/14 06:33:02;;;;;;;;;68.50;54.50;;;;;20.80;63.98;101901.98;106263;1286;18162;-84
2022/11/14 06:35:31;;;;;;;;;;;;;;;20.82;64.27;101914.89;106302;1296;18646;-84
2022/11/14 06:37:59;;;;;;;;;45.50;42.50;;;;;20.76;64.24;101905.98;106300;1281;21489;-82
2022/11/14 06:40:26;;;;;;;;;36.00;32.00;;;;;20.77;63.91;101901.63;106295;1288;20868;-81
2022/11/14 06:42:54;;;;;;;;;33.00;30.00;;;;;20.77;63.81;101901.20;106276;1288;20095;-81
2022/11/14 06:45:21;;;;;;;;;28.00;25.00;;;;;20.76;63.57;101903.29;106226;1282;19273;-81
2022/11/14 06:47:48;;;;;;;;;27.00;24.50;;;;;20.75;63.57;101906.86;106241;1279;22011;-81
2022/11/14 06:50:16;;;;;;;;;25.50;22.50;;;;;20.75;63.57;101902.87;106257;1281;18626;-81
2022/11/14 06:52:43;;;;;;;;;20.50;20.50;;;;;20.77;63.38;101913.22;106279;1297;21798;-81
2022/11/14 06:55:10;;;;;;;;;19.00;18.50;;;;;20.76;63.51;101912.90;106256;1279;18534;-81
2022/11/14 06:57:38;;;;;;;;;19.00;18.00;;;;;20.76;63.47;101910.92;106243;1274;22305;-80
2022/11/14 07:00:05;;;;;;;;;;;;;;;20.78;63.59;101908.60;106261;1279;22254;-81
2022/11/14 07:02:32;;;;;;;;;15.00;14.00;;;;;20.77;63.57;101906.34;106270;1280;18524;-81
2022/11/14 07:05:00;;;;;;;;;15.50;15.00;;;;;20.79;63.36;101910.65;106287;1296;18651;-80
2022/11/14 07:07:27;;;;;;;;;15.00;12.00;;;;;20.78;63.41;101912.52;106201;1271;19277;-81
2022/11/14 07:09:57;;;;;;;;;9.00;9.00;;;;;20.81;63.76;101912.63;106207;1281;20346;-80
2022/11/14 07:12:25;;;;;;;;;12.00;12.00;;;;;20.82;63.53;101906.20;106245;1295;22799;-81
2022/11/14 07:14:52;;;;;;;;;9.00;9.00;;;;;20.81;63.79;101908.06;106237;1288;22394;-79
2022/11/14 07:17:19;;;;;;;;;10.00;10.00;;;;;20.80;64.09;101910.49;106225;1279;19657;-80
2022/11/14 07:19:47;;;;;;;;;;;;;;;20.79;64.05;101910.05;106265;1297;18486;-80
2022/11/14 07:22:14;;;;;;;;;8.00;8.00;;;;;20.81;63.81;101912.83;106253;1281;22970;-80
2022/11/14 07:24:41;;;;;;;;;9.00;8.00;;;;;20.82;63.86;101913.70;106214;1297;18609;-80
2022/11/14 07:27:10;;;;;;;;;7.00;7.00;;;;;20.82;63.86;101915.67;106282;1296;18745;-79
2022/11/14 07:29:38;;;;;;;;;7.00;7.00;;;;;20.82;63.86;101922.18;106243;1288;19341;-80
2022/11/14 07:32:05;;;;;;;;;;;;;;;20.81;64.06;101920.66;106311;1288;20530;-80
2022/11/14 07:34:32;;;;;;;;;8.00;6.00;;;;;20.82;63.94;101918.77;106248;1281;19213;-79
2022/11/14 07:37:00;;;;;;;;;7.00;7.00;;;;;20.80;63.89;101914.69;106243;1271;20769;-79
2022/11/14 07:39:27;;;;;;;;;5.00;5.00;;;;;20.82;63.78;101917.98;106267;1297;18507;-80
2022/11/14 07:41:54;;;;;;;;;5.00;5.00;;;;;20.83;63.82;101910.45;106258;1279;19818;-80
2022/11/14 07:44:22;;;;;;;;;5.00;5.00;;;;;20.83;63.98;101912.31;106282;1281;21180;-81
2022/11/14 07:46:50;;;;;;;;;6.00;6.00;;;;;20.81;63.92;101912.26;106261;1297;18424;-79
2022/11/14 07:49:18;;;;;;;;;5.00;5.00;;;;;20.83;63.95;101909.25;106221;1288;18613;-80
2022/11/14 07:51:45;;;;;;;;;7.00;5.00;;;;;20.84;63.96;101909.80;106188;1288;21963;-79
2022/11/14 07:54:12;;;;;;;;;7.50;7.50;;;;;20.84;63.71;101905.30;106218;1287;18416;-80
2022/11/14 07:56:40;;;;;;;;;4.00;4.00;;;;;20.83;63.98;101904.83;106209;1287;21907;-80
2022/11/14 07:59:07;;;;;;;;;8.00;8.00;;;;;20.84;64.03;101906.54;106233;1279;23574;-81
2022/11/14 08:01:35;;;;;;;;;8.00;7.50;;;;;20.82;63.88;101902.78;106234;1288;18374;-81
2022/11/14 08:04:02;;;;;;;;;8.50;7.00;;;;;20.80;63.58;101896.59;106266;1297;18555;-81
2022/11/14 08:06:30;;;;;;;;;8.00;8.00;;;;;20.79;63.16;101895.05;106258;1297;19221;-81
2022/11/14 08:08:57;;;;;;;;;8.00;7.00;;;;;20.82;63.10;101887.86;106340;1290;24195;-81
2022/11/14 08:14:06;;;;;;;;;7.00;7.00;;;;;20.85;63.10;101883.41;106278;1281;20916;-81
2022/11/14 08:16:33;;;;;;;;;7.00;5.00;;;;;20.84;63.03;101876.02;106229;1272;21375;-81
2022/11/14 08:19:00;;;;;;;;;4.00;4.00;;;;;20.84;63.12;101872.71;106206;1279;20847;-80
2022/11/14 08:21:28;;;;;;;;;8.00;8.00;;;;;20.86;63.14;101867.83;106223;1288;19294;-80
2022/11/14 08:23:55;;;;;;;;;7.00;5.00;;;;;20.88;63.19;101868.60;106218;1281;23806;-81
2022/11/14 08:26:22;;;;;;;;;5.00;4.00;;;;;20.87;63.11;101870.15;106225;1288;18500;-81
2022/11/14 08:28:50;;;;;;;;;4.00;4.00;;;;;20.83;63.22;101869.56;106325;1280;23276;-80
2022/11/14 08:31:17;;;;;;;;;5.00;4.00;;;;;20.82;63.42;101867.88;106212;1289;19957;-79
2022/11/14 08:33:44;;;;;;;;;4.00;4.00;;;;;20.80;63.21;101863.30;106203;1300;18438;-81
2022/11/14 08:36:12;;;;;;;;;4.67;4.67;;;;;20.79;63.40;101866.84;106203;1281;29150;-79
2022/11/14 08:38:39;;;;;;;;;6.00;6.00;;;;;20.79;63.14;101866.85;106212;1296;23036;-80
2022/11/14 08:41:07;;;;;;;;;5.00;5.00;;;;;20.79;63.10;101858.16;106207;1297;18666;-80
2022/11/14 08:43:34;;;;;;;;;6.50;6.50;;;;;20.78;63.03;101862.42;106235;1296;19314;-80
2022/11/14 08:46:01;;;;;;;;;4.50;4.50;;;;;20.78;63.22;101859.15;106202;1298;18454;-79
2022/11/14 08:48:29;;;;;;;;;4.00;4.00;;;;;20.78;63.06;101856.48;106272;1288;21623;-79
2022/11/14 08:50:56;;;;;;;;;4.50;4.50;;;;;20.78;63.06;101849.54;106204;1279;19325;-79
2022/11/14 08:53:24;;;;;;;;;7.00;5.00;;;;;20.77;62.93;101852.93;106291;1288;18425;-79
2022/11/14 08:55:51;;;;;;;;;4.00;4.00;;;;;20.76;62.95;101850.84;106290;1281;20111;-79
2022/11/14 08:58:18;;;;;;;;;7.00;5.00;;;;;20.76;62.86;101853.67;106175;1280;19619;-80
2022/11/14 09:00:46;;;;;;;;;7.00;5.00;;;;;20.78;62.67;101846.06;106183;1288;18886;-79
2022/11/14 09:03:14;;;;;;;;;69.50;51.00;;;;;20.80;62.52;101845.50;106213;1279;18892;-79
2022/11/14 09:05:42;;;;;;;;;102.00;72.00;;;;;20.82;62.41;101843.92;106213;1271;19499;-79
2022/11/14 09:08:09;;;;;;;;;85.50;62.00;;;;;20.82;62.20;101842.44;106232;1279;19348;-79
2022/11/14 09:10:37;;;;;;;;;89.00;63.50;;;;;20.84;61.98;101850.23;106258;1282;20300;-79
2022/11/14 09:13:05;;;;;;;;;74.00;56.00;;;;;20.84;61.97;101849.17;106155;1288;19480;-79
2022/11/14 09:15:33;;;;;;;;;75.00;53.00;;;;;20.84;61.92;101851.73;106181;1279;20359;-80
2022/11/14 09:18:01;;;;;;;;;63.00;44.00;;;;;20.83;61.97;101849.67;106192;1296;18849;-80
2022/11/14 09:20:29;;;;;;;;;48.00;36.00;;;;;20.82;61.92;101847.85;106211;1287;19197;-78
2022/11/14 09:22:57;;;;;;;;;43.00;35.00;;;;;20.83;61.90;101844.88;106217;1286;18681;-80
2022/11/14 09:25:25;;;;;;;;;;;;;;;20.85;61.71;101841.64;106251;1288;18701;-79
2022/11/14 09:27:52;;;;;;;;;40.00;29.00;;;;;20.84;61.21;101837.86;106250;1296;19771;-79
2022/11/14 09:30:21;;;;;;;;;33.00;26.00;;;;;20.83;61.47;101832.50;106239;1287;18486;-79
2022/11/14 09:32:48;;;;;;;;;28.00;22.00;;;;;20.84;61.36;101829.34;106202;1288;19042;-79
2022/11/14 09:35:16;;;;;;;;;26.00;21.00;;;;;20.84;61.13;101827.34;106258;1297;20201;-80
2022/11/14 09:37:43;;;;;;;;;23.00;19.00;;;;;20.83;61.14;101821.80;106177;1288;23815;-79
2022/11/14 09:40:11;;;;;;;;;22.50;18.00;;;;;20.84;60.84;101822.67;106289;1280;20667;-81
2022/11/14 09:42:38;;;;;;;;;17.00;15.50;;;;;20.82;60.92;101823.52;106222;1296;21000;-79
2022/11/14 09:45:06;;;;;;;;;18.50;16.00;;;;;20.82;60.40;101820.81;106192;1287;21103;-80
2022/11/14 09:47:33;;;;;;;;;21.00;18.00;;;;;20.82;60.53;101815.59;106251;1297;19063;-78
2022/11/14 09:50:04;;;;;;;;;15.00;13.00;;;;;20.82;60.50;101814.11;106200;1297;19486;-78
2022/11/14 09:52:31;;;;;;;;;16.00;15.00;;;;;20.79;60.43;101814.34;106153;1288;20268;-80
2022/11/14 09:54:59;;;;;;;;;15.00;12.50;;;;;20.78;60.59;101811.90;106213;1297;18751;-80
2022/11/14 09:57:26;;;;;;;;;14.50;12.00;;;;;20.81;60.33;101813.64;106200;1281;19528;-80
2022/11/14 09:59:54;;;;;;;;;16.00;15.00;;;;;20.83;60.24;101817.27;106193;1297;18516;-79
2022/11/14 10:02:21;;;;;;;;;12.00;12.00;;;;;20.83;60.31;101813.46;106253;1284;18934;-78
2022/11/14 10:04:48;;;;;;;;;21.00;15.00;;;;;20.83;60.25;101812.92;106211;1288;19623;-78
2022/11/14 10:07:16;;;;;;;;;13.00;12.00;;;;;20.82;60.06;101810.46;106205;1288;19992;-78
2022/11/14 10:09:43;;;;;;;;;11.00;11.00;;;;;20.81;59.92;101807.52;106174;1287;20585;-77
2022/11/14 10:12:11;;;;;;;;;;;;;;;20.80;60.24;101798.06;106141;1272;21634;-78
2022/11/14 10:14:38;;;;;;;;;12.00;12.00;;;;;20.80;60.28;101799.18;106121;1287;18854;-79
2022/11/14 10:17:06;;;;;;;;;;;;;;;20.80;60.29;101799.90;106277;1281;18979;-79
2022/11/14 10:19:33;;;;;;;;;11.00;9.00;;;;;20.79;60.20;101794.40;106263;1288;19482;-79
2022/11/14 10:22:01;;;;;;;;;12.00;11.00;;;;;20.78;60.13;101788.51;106183;1272;18506;-78
2022/11/14 10:24:28;;;;;;;;;14.00;11.00;;;;;20.77;60.21;101783.46;106120;1287;18787;-79
2022/11/14 10:26:56;;;;;;;;;9.00;7.50;;;;;20.77;59.98;101777.38;106282;1296;19270;-79
2022/11/14 10:29:23;;;;;;;;;15.00;12.00;;;;;20.77;60.01;101774.46;106150;1288;18960;-79
2022/11/14 10:31:51;;;;;;;;;14.50;14.50;;;;;20.78;59.82;101762.17;106136;1296;18950;-76
2022/11/14 10:34:18;;;;;;;;;;;;;;;20.68;59.48;101762.05;106153;1288;19443;-78
2022/11/14 10:36:46;;;;;;;;;18.00;16.00;;;;;20.64;59.01;101763.74;106212;1295;18676;-79
2022/11/14 10:39:13;;;;;;;;;19.00;16.00;;;;;20.61;58.15;101767.17;106281;1295;18738;-79
2022/11/14 10:41:41;;;;;;;;;18.00;15.00;;;;;20.62;57.99;101765.05;106103;1287;19436;-78
2022/11/14 10:44:08;;;;;;;;;19.00;14.00;;;;;20.66;57.90;101760.80;106203;1288;18841;-79
2022/11/14 10:46:36;;;;;;;;;15.00;14.00;;;;;20.69;57.91;101756.73;106161;1288;18853;-81
2022/11/14 10:49:03;;;;;;;;;19.00;18.00;;;;;20.71;57.77;101755.80;106275;1279;19634;-84
2022/11/14 10:51:31;;;;;;;;;23.50;20.00;;;;;20.53;57.20;101754.25;106256;1288;20125;-77
2022/11/14 10:53:58;;;;;;;;;25.00;21.00;;;;;20.42;56.40;101745.34;106255;1288;22081;-76
2022/11/14 10:56:28;;;;;;;;;41.00;26.00;;;;;20.23;55.71;101740.67;106171;1296;19304;-78
2022/11/14 10:58:56;;;;;;;;;22.00;21.00;;;;;20.21;55.12;101741.60;106226;1288;18497;-80
2022/11/14 11:01:23;;;;;;;;;19.50;17.00;;;;;20.33;54.93;101732.61;106169;1296;18941;-78
2022/11/14 11:03:51;;;;;;;;;28.00;18.00;;;;;20.46;54.97;101728.64;106179;1279;19316;-80
2022/11/14 11:06:18;;;;;;;;;15.50;14.50;;;;;20.54;54.85;101734.91;106162;1287;19958;-78
2022/11/14 11:11:31;;;;;;;;;17.00;15.00;;;;;20.59;55.33;101723.98;106185;1281;19600;-78
2022/11/14 11:13:58;;;;;;;;;14.50;12.00;;;;;20.60;55.31;101722.73;106307;1297;19963;-78
2022/11/14 11:16:26;;;;;;;;;12.00;12.00;;;;;20.60;55.60;101720.92;106252;1287;18628;-78
2022/11/14 11:18:53;;;;;;;;;14.00;12.00;;;;;20.61;55.49;101721.20;106191;1296;19663;-78
2022/11/14 11:21:21;;;;;;;;;17.00;14.50;;;;;20.60;55.64;101717.08;106307;1297;18724;-79
2022/11/14 11:23:48;;;;;;;;;15.00;11.50;;;;;20.61;55.78;101717.52;106164;1289;18948;-78